createdAt,value
2017-11-04T00:00:27.220Z,995.9
2017-11-04T00:01:28.815Z,995.9
2017-11-04T00:02:30.256Z,995.9
2017-11-04T00:03:32.011Z,995.9
2017-11-04T00:04:33.463Z,995.9
2017-11-04T00:05:34.942Z,995.9
2017-11-04T00:06:36.589Z,995.9
2017-11-04T00:07:38.062Z,995.9
2017-11-04T00:08:39.583Z,995.9
2017-11-04T00:09:41.156Z,995.8
2017-11-04T00:10:42.780Z,995.8
2017-11-04T00:11:44.424Z,995.8
2017-11-04T00:12:45.941Z,995.7
2017-11-04T00:13:47.397Z,995.7
2017-11-04T00:14:48.952Z,995.7
2017-11-04T00:15:50.433Z,995.7
2017-11-04T00:16:52.201Z,995.7
2017-11-04T00:17:53.783Z,995.7
2017-11-04T00:18:55.428Z,995.7
2017-11-04T00:19:56.857Z,995.6
2017-11-04T00:20:58.370Z,995.7
2017-11-04T00:21:59.893Z,995.7
2017-11-04T00:23:01.573Z,995.6
2017-11-04T00:24:03.461Z,995.6
2017-11-04T00:25:05.101Z,995.6
2017-11-04T00:26:06.555Z,995.7
2017-11-04T00:27:08.078Z,995.6
2017-11-04T00:28:09.557Z,995.7
2017-11-04T00:29:11.154Z,995.7
2017-11-04T00:30:12.569Z,995.6
2017-11-04T00:31:14.475Z,995.6
2017-11-04T00:32:15.889Z,995.6
2017-11-04T00:33:17.369Z,995.6
2017-11-04T00:34:18.846Z,995.6
2017-11-04T00:35:20.315Z,995.6
2017-11-04T00:36:21.768Z,995.6
2017-11-04T00:37:23.315Z,995.6
2017-11-04T00:38:24.731Z,995.6
2017-11-04T00:39:26.210Z,995.6
2017-11-04T00:40:27.692Z,995.5
2017-11-04T00:41:29.180Z,995.6
2017-11-04T00:42:30.637Z,995.5
2017-11-04T00:43:32.084Z,995.5
2017-11-04T00:44:33.544Z,995.5
2017-11-04T00:45:35.534Z,995.5
2017-11-04T00:46:37.012Z,995.5
2017-11-04T00:47:38.522Z,995.5
2017-11-04T00:48:39.985Z,995.5
2017-11-04T00:49:41.417Z,995.4
2017-11-04T00:50:42.859Z,995.4
2017-11-04T00:51:44.312Z,995.4
2017-11-04T00:52:45.760Z,995.4
2017-11-04T00:53:47.221Z,995.4
2017-11-04T00:54:48.703Z,995.4
2017-11-04T00:55:50.169Z,995.4
2017-11-04T00:56:51.645Z,995.4
2017-11-04T00:57:53.066Z,995.4
2017-11-04T00:58:54.505Z,995.4
2017-11-04T00:59:55.977Z,995.4
2017-11-04T01:00:57.404Z,995.4
2017-11-04T01:01:58.868Z,995.4
2017-11-04T01:03:00.292Z,995.4
2017-11-04T01:04:01.706Z,995.4
2017-11-04T01:05:03.188Z,995.4
2017-11-04T01:06:04.627Z,995.4
2017-11-04T01:07:06.047Z,995.3
2017-11-04T01:08:07.521Z,995.3
2017-11-04T01:09:08.985Z,995.3
2017-11-04T01:10:10.449Z,995.3
2017-11-04T01:11:11.925Z,995.3
2017-11-04T01:12:13.405Z,995.3
2017-11-04T01:13:14.850Z,995.3
2017-11-04T01:14:16.312Z,995.3
2017-11-04T01:15:17.820Z,995.3
2017-11-04T01:16:19.274Z,995.3
2017-11-04T01:17:20.701Z,995.3
2017-11-04T01:18:22.139Z,995.3
2017-11-04T01:19:23.635Z,995.3
2017-11-04T01:20:25.124Z,995.3
2017-11-04T01:21:26.588Z,995.3
2017-11-04T01:22:28.093Z,995.3
2017-11-04T01:23:29.548Z,995.2
2017-11-04T01:24:31.016Z,995.2
2017-11-04T01:25:32.568Z,995.2
2017-11-04T01:26:34.094Z,995.2
2017-11-04T01:27:35.581Z,995.2
2017-11-04T01:28:37.049Z,995.2
2017-11-04T01:29:38.492Z,995.2
2017-11-04T01:30:39.993Z,995.1
2017-11-04T01:31:41.466Z,995.1
2017-11-04T01:32:42.961Z,995.1
2017-11-04T01:33:44.543Z,995.1
2017-11-04T01:34:46.024Z,995.1
2017-11-04T01:35:47.511Z,995.1
2017-11-04T01:36:48.972Z,995.1
2017-11-04T01:37:50.440Z,995.0
2017-11-04T01:38:51.980Z,995.1
2017-11-04T01:39:53.451Z,995.1
2017-11-04T01:40:54.960Z,995.1
2017-11-04T01:41:56.388Z,995.1
2017-11-04T01:42:57.857Z,995.0
2017-11-04T01:43:59.363Z,995.0
2017-11-04T01:45:00.802Z,995.0
2017-11-04T01:46:02.290Z,995.0
2017-11-04T01:47:03.775Z,995.0
2017-11-04T01:48:05.246Z,995.0
2017-11-04T01:49:06.733Z,995.0
2017-11-04T01:50:08.195Z,995.0
2017-11-04T01:51:09.670Z,995.0
2017-11-04T01:52:11.118Z,995.0
2017-11-04T01:53:12.631Z,994.9
2017-11-04T01:54:14.147Z,995.0
2017-11-04T01:55:15.672Z,994.9
2017-11-04T01:56:17.109Z,994.9
2017-11-04T01:57:18.533Z,994.9
2017-11-04T01:58:19.964Z,994.9
2017-11-04T01:59:21.497Z,994.9
2017-11-04T02:00:22.968Z,994.9
2017-11-04T02:01:24.410Z,994.9
2017-11-04T02:02:25.894Z,994.9
2017-11-04T02:03:27.365Z,994.9
2017-11-04T02:04:28.834Z,994.9
2017-11-04T02:05:30.298Z,994.9
2017-11-04T02:06:31.774Z,994.9
2017-11-04T02:07:33.245Z,994.8
2017-11-04T02:08:34.744Z,994.8
2017-11-04T02:09:36.237Z,994.8
2017-11-04T02:10:37.755Z,994.8
2017-11-04T02:11:39.210Z,994.7
2017-11-04T02:12:40.687Z,994.8
2017-11-04T02:13:42.137Z,994.8
2017-11-04T02:14:43.602Z,994.7
2017-11-04T02:15:45.062Z,994.7
2017-11-04T02:16:46.490Z,994.8
2017-11-04T02:17:47.929Z,994.7
2017-11-04T02:18:49.477Z,994.7
2017-11-04T02:19:50.923Z,994.8
2017-11-04T02:20:52.427Z,994.8
2017-11-04T02:21:53.894Z,994.7
2017-11-04T02:22:55.403Z,994.7
2017-11-04T02:23:56.851Z,994.7
2017-11-04T02:24:58.393Z,994.6
2017-11-04T02:25:59.880Z,994.6
2017-11-04T02:27:01.396Z,994.6
2017-11-04T02:28:02.836Z,994.6
2017-11-04T02:29:04.318Z,994.6
2017-11-04T02:30:05.747Z,994.6
2017-11-04T02:31:07.217Z,994.6
2017-11-04T02:32:08.703Z,994.5
2017-11-04T02:33:10.135Z,994.6
2017-11-04T02:34:11.603Z,994.6
2017-11-04T02:35:13.099Z,994.5
2017-11-04T02:36:14.575Z,994.6
2017-11-04T02:37:16.089Z,994.6
2017-11-04T02:38:17.493Z,994.6
2017-11-04T02:39:19.004Z,994.5
2017-11-04T02:40:20.415Z,994.5
2017-11-04T02:41:21.844Z,994.5
2017-11-04T02:42:23.308Z,994.5
2017-11-04T02:43:24.825Z,994.6
2017-11-04T02:44:26.266Z,994.6
2017-11-04T02:45:27.798Z,994.5
2017-11-04T02:46:29.230Z,994.5
2017-11-04T02:47:30.680Z,994.5
2017-11-04T02:48:32.153Z,994.5
2017-11-04T02:49:33.627Z,994.5
2017-11-04T02:50:35.144Z,994.5
2017-11-04T02:51:36.539Z,994.5
2017-11-04T02:52:38.028Z,994.5
2017-11-04T02:53:39.449Z,994.5
2017-11-04T02:54:40.911Z,994.5
2017-11-04T02:55:42.373Z,994.5
2017-11-04T02:56:43.859Z,994.5
2017-11-04T02:57:45.294Z,994.4
2017-11-04T02:58:46.829Z,994.4
2017-11-04T02:59:48.332Z,994.4
2017-11-04T03:00:49.771Z,994.4
2017-11-04T03:01:51.221Z,994.4
2017-11-04T03:02:52.670Z,994.4
2017-11-04T03:03:54.155Z,994.4
2017-11-04T03:04:55.618Z,994.4
2017-11-04T03:05:57.082Z,994.5
2017-11-04T03:06:58.595Z,994.5
2017-11-04T03:08:00.034Z,994.4
2017-11-04T03:09:01.496Z,994.4
2017-11-04T03:10:02.959Z,994.4
2017-11-04T03:11:04.429Z,994.4
2017-11-04T03:12:05.883Z,994.4
2017-11-04T03:13:07.302Z,994.4
2017-11-04T03:14:08.778Z,994.4
2017-11-04T03:15:10.197Z,994.5
2017-11-04T03:16:11.647Z,994.4
2017-11-04T03:17:13.054Z,994.4
2017-11-04T03:18:14.499Z,994.4
2017-11-04T03:19:15.978Z,994.5
2017-11-04T03:20:17.471Z,994.4
2017-11-04T03:21:18.919Z,994.4
2017-11-04T03:22:20.346Z,994.4
2017-11-04T03:23:21.844Z,994.4
2017-11-04T03:24:23.376Z,994.4
2017-11-04T03:25:24.818Z,994.4
2017-11-04T03:26:26.283Z,994.4
2017-11-04T03:27:27.724Z,994.4
2017-11-04T03:28:29.185Z,994.4
2017-11-04T03:29:30.613Z,994.4
2017-11-04T03:30:32.098Z,994.3
2017-11-04T03:31:33.541Z,994.4
2017-11-04T03:32:35.041Z,994.4
2017-11-04T03:33:36.525Z,994.3
2017-11-04T03:34:37.989Z,994.3
2017-11-04T03:35:39.460Z,994.3
2017-11-04T03:36:40.903Z,994.3
2017-11-04T03:37:42.368Z,994.2
2017-11-04T03:38:43.881Z,994.3
2017-11-04T03:39:45.400Z,994.3
2017-11-04T03:40:46.856Z,994.3
2017-11-04T03:41:48.304Z,994.2
2017-11-04T03:42:49.772Z,994.2
2017-11-04T03:43:51.213Z,994.3
2017-11-04T03:44:52.648Z,994.3
2017-11-04T03:45:54.168Z,994.2
2017-11-04T03:46:55.616Z,994.3
2017-11-04T03:47:57.106Z,994.3
2017-11-04T03:48:58.535Z,994.3
2017-11-04T03:49:59.966Z,994.2
2017-11-04T03:51:01.417Z,994.3
2017-11-04T03:52:02.881Z,994.2
2017-11-04T03:53:04.318Z,994.2
2017-11-04T03:54:05.830Z,994.2
2017-11-04T03:55:07.304Z,994.2
2017-11-04T03:56:08.786Z,994.2
2017-11-04T03:57:10.208Z,994.2
2017-11-04T03:58:11.684Z,994.2
2017-11-04T03:59:13.194Z,994.2
2017-11-04T04:00:14.630Z,994.1
2017-11-04T04:01:16.129Z,994.1
2017-11-04T04:02:17.626Z,994.1
2017-11-04T04:03:19.071Z,994.1
2017-11-04T04:04:20.570Z,994.2
2017-11-04T04:05:22.038Z,994.1
2017-11-04T04:06:23.521Z,994.2
2017-11-04T04:07:24.944Z,994.1
2017-11-04T04:08:26.462Z,994.2
2017-11-04T04:09:27.909Z,994.1
2017-11-04T04:10:29.366Z,994.1
2017-11-04T04:11:30.799Z,994.1
2017-11-04T04:12:32.226Z,994.1
2017-11-04T04:13:33.648Z,994.1
2017-11-04T04:14:35.082Z,994.1
2017-11-04T04:15:36.570Z,994.1
2017-11-04T04:16:38.047Z,994.1
2017-11-04T04:17:39.503Z,994.1
2017-11-04T04:18:40.938Z,994.1
2017-11-04T04:19:42.414Z,994.1
2017-11-04T04:20:43.864Z,994.0
2017-11-04T04:21:45.318Z,994.1
2017-11-04T04:22:46.805Z,994.0
2017-11-04T04:23:48.264Z,994.0
2017-11-04T04:24:49.692Z,994.1
2017-11-04T04:25:51.178Z,994.0
2017-11-04T04:26:52.649Z,994.0
2017-11-04T04:27:54.109Z,994.1
2017-11-04T04:28:55.574Z,994.1
2017-11-04T04:29:57.059Z,994.0
2017-11-04T04:30:58.516Z,994.0
2017-11-04T04:31:59.965Z,994.0
2017-11-04T04:33:01.447Z,994.0
2017-11-04T04:34:02.900Z,994.0
2017-11-04T04:35:04.344Z,994.0
2017-11-04T04:36:05.795Z,994.0
2017-11-04T04:37:07.254Z,994.0
2017-11-04T04:38:08.699Z,994.0
2017-11-04T04:39:10.138Z,994.0
2017-11-04T04:40:11.612Z,994.0
2017-11-04T04:41:13.036Z,994.0
2017-11-04T04:42:14.502Z,994.0
2017-11-04T04:43:15.946Z,994.0
2017-11-04T04:44:17.447Z,994.0
2017-11-04T04:45:18.861Z,994.0
2017-11-04T04:46:20.292Z,994.0
2017-11-04T04:47:21.754Z,994.0
2017-11-04T04:48:23.213Z,994.0
2017-11-04T04:49:24.700Z,994.0
2017-11-04T04:50:26.190Z,994.0
2017-11-04T04:51:27.642Z,994.0
2017-11-04T04:52:29.122Z,993.9
2017-11-04T04:53:30.584Z,994.0
2017-11-04T04:54:32.063Z,994.0
2017-11-04T04:55:33.522Z,993.9
2017-11-04T04:56:34.995Z,993.9
2017-11-04T04:57:36.406Z,993.9
2017-11-04T04:58:37.881Z,993.9
2017-11-04T04:59:39.368Z,993.9
2017-11-04T05:00:40.807Z,993.9
2017-11-04T05:01:42.237Z,993.8
2017-11-04T05:02:43.757Z,993.8
2017-11-04T05:03:45.207Z,993.8
2017-11-04T05:04:46.676Z,993.8
2017-11-04T05:05:48.192Z,993.8
2017-11-04T05:06:49.667Z,993.8
2017-11-04T05:07:51.166Z,993.8
2017-11-04T05:08:52.732Z,993.8
2017-11-04T05:09:54.196Z,993.8
2017-11-04T05:10:55.673Z,993.7
2017-11-04T05:11:57.118Z,993.8
2017-11-04T05:12:58.600Z,993.7
2017-11-04T05:14:00.062Z,993.7
2017-11-04T05:15:01.510Z,993.6
2017-11-04T05:16:02.995Z,993.6
2017-11-04T05:17:04.475Z,993.6
2017-11-04T05:18:06.005Z,993.6
2017-11-04T05:19:07.416Z,993.6
2017-11-04T05:20:08.839Z,993.7
2017-11-04T05:21:10.389Z,993.6
2017-11-04T05:22:11.801Z,993.6
2017-11-04T05:23:13.268Z,993.6
2017-11-04T05:24:14.744Z,993.6
2017-11-04T05:25:16.187Z,993.6
2017-11-04T05:26:17.670Z,993.6
2017-11-04T05:27:19.105Z,993.5
2017-11-04T05:28:20.587Z,993.5
2017-11-04T05:29:22.036Z,993.5
2017-11-04T05:30:23.463Z,993.6
2017-11-04T05:31:24.946Z,993.6
2017-11-04T05:32:26.363Z,993.5
2017-11-04T05:33:27.833Z,993.5
2017-11-04T05:34:29.270Z,993.5
2017-11-04T05:35:30.769Z,993.5
2017-11-04T05:36:32.195Z,993.5
2017-11-04T05:37:33.635Z,993.5
2017-11-04T05:38:35.063Z,993.5
2017-11-04T05:39:36.550Z,993.5
2017-11-04T05:40:37.999Z,993.5
2017-11-04T05:41:39.470Z,993.5
2017-11-04T05:42:40.935Z,993.5
2017-11-04T05:43:42.509Z,993.5
2017-11-04T05:44:43.987Z,993.5
2017-11-04T05:45:45.448Z,993.5
2017-11-04T05:46:46.918Z,993.5
2017-11-04T05:47:48.393Z,993.5
2017-11-04T05:48:49.865Z,993.5
2017-11-04T05:49:51.374Z,993.4
2017-11-04T05:50:52.819Z,993.4
2017-11-04T05:51:54.326Z,993.5
2017-11-04T05:52:55.830Z,993.5
2017-11-04T05:53:57.324Z,993.5
2017-11-04T05:54:58.898Z,993.5
2017-11-04T05:56:00.344Z,993.5
2017-11-04T05:57:01.838Z,993.5
2017-11-04T05:58:03.352Z,993.5
2017-11-04T05:59:04.823Z,993.5
2017-11-04T06:00:06.270Z,993.5
2017-11-04T06:01:07.722Z,993.5
2017-11-04T06:02:09.211Z,993.5
2017-11-04T06:03:10.641Z,993.5
2017-11-04T06:04:12.145Z,993.5
2017-11-04T06:05:13.560Z,993.5
2017-11-04T06:06:15.010Z,993.5
2017-11-04T06:07:16.444Z,993.5
2017-11-04T06:08:17.969Z,993.5
2017-11-04T06:09:19.426Z,993.5
2017-11-04T06:10:20.884Z,993.5
2017-11-04T06:11:22.338Z,993.5
2017-11-04T06:12:23.821Z,993.5
2017-11-04T06:13:25.272Z,993.5
2017-11-04T06:14:26.717Z,993.5
2017-11-04T06:15:28.189Z,993.5
2017-11-04T06:16:29.718Z,993.5
2017-11-04T06:17:31.159Z,993.5
2017-11-04T06:18:32.611Z,993.5
2017-11-04T06:19:34.071Z,993.5
2017-11-04T06:20:35.562Z,993.5
2017-11-04T06:21:37.014Z,993.5
2017-11-04T06:22:38.472Z,993.5
2017-11-04T06:23:39.944Z,993.6
2017-11-04T06:24:41.384Z,993.6
2017-11-04T06:25:42.823Z,993.6
2017-11-04T06:26:44.382Z,993.6
2017-11-04T06:27:45.867Z,993.6
2017-11-04T06:28:47.312Z,993.6
2017-11-04T06:29:48.784Z,993.6
2017-11-04T06:30:50.267Z,993.6
2017-11-04T06:31:51.728Z,993.6
2017-11-04T06:32:53.215Z,993.6
2017-11-04T06:33:54.658Z,993.6
2017-11-04T06:34:56.132Z,993.5
2017-11-04T06:35:57.667Z,993.5
2017-11-04T06:36:59.114Z,993.6
2017-11-04T06:38:00.612Z,993.5
2017-11-04T06:39:02.070Z,993.5
2017-11-04T06:40:03.555Z,993.6
2017-11-04T06:41:04.981Z,993.6
2017-11-04T06:42:06.481Z,993.6
2017-11-04T06:43:07.935Z,993.5
2017-11-04T06:44:09.412Z,993.6
2017-11-04T06:45:10.898Z,993.6
2017-11-04T06:46:12.361Z,993.7
2017-11-04T06:47:13.858Z,993.6
2017-11-04T06:48:15.348Z,993.6
2017-11-04T06:49:16.815Z,993.7
2017-11-04T06:50:18.280Z,993.6
2017-11-04T06:51:19.755Z,993.6
2017-11-04T06:52:21.264Z,993.6
2017-11-04T06:53:22.736Z,993.6
2017-11-04T06:54:24.184Z,993.6
2017-11-04T06:55:25.603Z,993.6
2017-11-04T06:56:27.075Z,993.6
2017-11-04T06:57:28.586Z,993.6
2017-11-04T06:58:30.030Z,993.6
2017-11-04T06:59:31.463Z,993.6
2017-11-04T07:00:32.948Z,993.6
2017-11-04T07:01:34.406Z,993.5
2017-11-04T07:02:35.852Z,993.6
2017-11-04T07:03:37.327Z,993.6
2017-11-04T07:04:38.785Z,993.5
2017-11-04T07:05:40.266Z,993.5
2017-11-04T07:06:41.705Z,993.5
2017-11-04T07:07:43.214Z,993.5
2017-11-04T07:08:44.694Z,993.4
2017-11-04T07:09:46.150Z,993.4
2017-11-04T07:10:47.647Z,993.5
2017-11-04T07:11:49.143Z,993.5
2017-11-04T07:12:50.592Z,993.5
2017-11-04T07:13:52.084Z,993.4
2017-11-04T07:14:53.533Z,993.4
2017-11-04T07:15:55.025Z,993.3
2017-11-04T07:16:56.482Z,993.4
2017-11-04T07:17:57.955Z,993.4
2017-11-04T07:18:59.435Z,993.3
2017-11-04T07:20:01.057Z,993.3
2017-11-04T07:21:02.552Z,993.3
2017-11-04T07:22:04.016Z,993.4
2017-11-04T07:23:05.484Z,993.4
2017-11-04T07:24:06.920Z,993.4
2017-11-04T07:25:08.396Z,993.4
2017-11-04T07:26:09.824Z,993.4
2017-11-04T07:27:11.388Z,993.4
2017-11-04T07:28:13.163Z,993.3
2017-11-04T07:29:14.659Z,993.3
2017-11-04T07:30:16.097Z,993.3
2017-11-04T07:31:17.611Z,993.3
2017-11-04T07:32:19.034Z,993.3
2017-11-04T07:33:20.515Z,993.3
2017-11-04T07:34:22.021Z,993.3
2017-11-04T07:35:23.491Z,993.2
2017-11-04T07:36:24.952Z,993.2
2017-11-04T07:37:26.388Z,993.3
2017-11-04T07:38:27.867Z,993.2
2017-11-04T07:39:29.310Z,993.2
2017-11-04T07:40:30.742Z,993.2
2017-11-04T07:41:32.211Z,993.3
2017-11-04T07:42:33.671Z,993.3
2017-11-04T07:43:35.141Z,993.2
2017-11-04T07:44:36.653Z,993.2
2017-11-04T07:45:38.075Z,993.2
2017-11-04T07:46:39.535Z,993.2
2017-11-04T07:47:40.978Z,993.2
2017-11-04T07:48:42.506Z,993.1
2017-11-04T07:49:43.957Z,993.2
2017-11-04T07:50:45.391Z,993.2
2017-11-04T07:51:46.947Z,993.2
2017-11-04T07:52:48.397Z,993.2
2017-11-04T07:53:49.881Z,993.2
2017-11-04T07:54:51.329Z,993.2
2017-11-04T07:55:52.844Z,993.2
2017-11-04T07:56:54.343Z,993.1
2017-11-04T07:57:55.806Z,993.2
2017-11-04T07:58:57.334Z,993.2
2017-11-04T07:59:59.551Z,993.2
2017-11-04T08:01:01.020Z,993.1
2017-11-04T08:02:02.505Z,993.1
2017-11-04T08:03:04.033Z,993.1
2017-11-04T08:04:05.491Z,993.2
2017-11-04T08:05:06.959Z,993.2
2017-11-04T08:06:08.466Z,993.2
2017-11-04T08:07:09.917Z,993.2
2017-11-04T08:08:11.354Z,993.2
2017-11-04T08:09:12.838Z,993.2
2017-11-04T08:10:14.304Z,993.2
2017-11-04T08:11:15.749Z,993.2
2017-11-04T08:12:17.243Z,993.2
2017-11-04T08:13:18.709Z,993.2
2017-11-04T08:14:20.172Z,993.2
2017-11-04T08:15:21.728Z,993.1
2017-11-04T08:16:23.193Z,993.2
2017-11-04T08:17:24.654Z,993.1
2017-11-04T08:18:26.143Z,993.2
2017-11-04T08:19:27.728Z,993.2
2017-11-04T08:20:29.175Z,993.1
2017-11-04T08:21:30.632Z,993.1
2017-11-04T08:22:32.157Z,993.1
2017-11-04T08:23:33.915Z,993.1
2017-11-04T08:24:35.751Z,993.1
2017-11-04T08:25:37.177Z,993.1
2017-11-04T08:26:38.730Z,993.1
2017-11-04T08:27:40.273Z,993.1
2017-11-04T08:28:41.899Z,993.1
2017-11-04T08:29:43.356Z,993.1
2017-11-04T08:30:44.861Z,993.1
2017-11-04T08:31:46.397Z,993.1
2017-11-04T08:32:47.906Z,993.2
2017-11-04T08:33:49.385Z,993.1
2017-11-04T08:34:50.824Z,993.1
2017-11-04T08:35:52.361Z,993.1
2017-11-04T08:36:53.887Z,993.2
2017-11-04T08:37:55.338Z,993.1
2017-11-04T08:38:56.880Z,993.2
2017-11-04T08:39:58.354Z,993.2
2017-11-04T08:40:59.886Z,993.1
2017-11-04T08:42:01.423Z,993.1
2017-11-04T08:43:02.908Z,993.1
2017-11-04T08:44:04.388Z,993.1
2017-11-04T08:45:05.892Z,993.1
2017-11-04T08:46:07.396Z,993.1
2017-11-04T08:47:08.936Z,993.1
2017-11-04T08:48:10.349Z,993.1
2017-11-04T08:49:11.918Z,993.1
2017-11-04T08:50:13.453Z,993.1
2017-11-04T08:51:14.922Z,993.1
2017-11-04T08:52:16.559Z,993.1
2017-11-04T08:53:18.046Z,993.1
2017-11-04T08:54:19.518Z,993.1
2017-11-04T08:55:20.987Z,993.1
2017-11-04T08:56:22.450Z,993.1
2017-11-04T08:57:23.983Z,993.1
2017-11-04T08:58:25.474Z,993.1
2017-11-04T08:59:26.954Z,993.1
2017-11-04T09:00:28.387Z,993.2
2017-11-04T09:01:29.875Z,993.1
2017-11-04T09:02:31.371Z,993.1
2017-11-04T09:03:32.856Z,993.1
2017-11-04T09:04:34.350Z,993.0
2017-11-04T09:05:35.947Z,993.1
2017-11-04T09:06:37.502Z,993.0
2017-11-04T09:07:39.017Z,993.1
2017-11-04T09:08:40.599Z,993.1
2017-11-04T09:09:42.139Z,993.2
2017-11-04T09:10:43.728Z,993.1
2017-11-04T09:11:45.250Z,993.1
2017-11-04T09:12:46.877Z,993.1
2017-11-04T09:13:48.507Z,993.1
2017-11-04T09:14:50.082Z,993.1
2017-11-04T09:15:51.591Z,993.1
2017-11-04T09:16:53.081Z,993.2
2017-11-04T09:17:54.674Z,993.2
2017-11-04T09:18:56.221Z,993.2
2017-11-04T09:19:57.698Z,993.1
2017-11-04T09:20:59.233Z,993.1
2017-11-04T09:22:00.733Z,993.2
2017-11-04T09:23:02.310Z,993.2
2017-11-04T09:24:03.875Z,993.1
2017-11-04T09:25:05.456Z,993.1
2017-11-04T09:26:07.049Z,993.1
2017-11-04T09:27:08.617Z,993.1
2017-11-04T09:28:10.208Z,993.1
2017-11-04T09:29:11.627Z,993.1
2017-11-04T09:30:13.062Z,993.1
2017-11-04T09:31:14.596Z,993.1
2017-11-04T09:32:16.044Z,993.1
2017-11-04T09:33:17.486Z,993.0
2017-11-04T09:34:18.898Z,993.0
2017-11-04T09:35:20.331Z,992.9
2017-11-04T09:36:21.762Z,992.9
2017-11-04T09:37:23.215Z,992.9
2017-11-04T09:38:24.640Z,992.9
2017-11-04T09:39:26.197Z,992.9
2017-11-04T09:40:27.632Z,992.9
2017-11-04T09:41:29.046Z,992.9
2017-11-04T09:42:30.526Z,992.9
2017-11-04T09:43:32.036Z,992.9
2017-11-04T09:44:33.504Z,992.9
2017-11-04T09:45:34.918Z,992.8
2017-11-04T09:46:36.344Z,992.8
2017-11-04T09:47:37.905Z,992.8
2017-11-04T09:48:39.418Z,992.8
2017-11-04T09:49:40.961Z,992.8
2017-11-04T09:50:42.485Z,992.8
2017-11-04T09:51:44.086Z,992.7
2017-11-04T09:52:45.559Z,992.8
2017-11-04T09:53:47.058Z,992.7
2017-11-04T09:54:48.649Z,992.8
2017-11-04T09:55:50.133Z,992.8
2017-11-04T09:56:51.613Z,992.8
2017-11-04T09:57:53.015Z,992.8
2017-11-04T09:58:54.572Z,992.8
2017-11-04T09:59:56.059Z,992.7
2017-11-04T10:00:57.495Z,992.7
2017-11-04T10:01:59.041Z,992.7
2017-11-04T10:03:00.568Z,992.7
2017-11-04T10:04:02.059Z,992.7
2017-11-04T10:05:03.568Z,992.7
2017-11-04T10:06:05.012Z,992.7
2017-11-04T10:07:06.435Z,992.7
2017-11-04T10:08:07.873Z,992.7
2017-11-04T10:09:09.361Z,992.6
2017-11-04T10:10:10.856Z,992.6
2017-11-04T10:11:12.268Z,992.6
2017-11-04T10:12:13.710Z,992.6
2017-11-04T10:13:15.189Z,992.6
2017-11-04T10:14:16.690Z,992.6
2017-11-04T10:15:18.109Z,992.6
2017-11-04T10:16:19.591Z,992.6
2017-11-04T10:17:21.108Z,992.5
2017-11-04T10:18:22.634Z,992.5
2017-11-04T10:19:24.088Z,992.5
2017-11-04T10:20:25.539Z,992.6
2017-11-04T10:21:26.985Z,992.6
2017-11-04T10:22:28.448Z,992.6
2017-11-04T10:23:29.948Z,992.6
2017-11-04T10:24:31.385Z,992.6
2017-11-04T10:25:32.829Z,992.7
2017-11-04T10:26:34.257Z,992.7
2017-11-04T10:27:35.772Z,992.7
2017-11-04T10:28:37.207Z,992.6
2017-11-04T10:29:39.119Z,992.6
2017-11-04T10:30:40.568Z,992.5
2017-11-04T10:31:42.006Z,992.5
2017-11-04T10:32:43.427Z,992.5
2017-11-04T10:33:44.918Z,992.5
2017-11-04T10:34:46.379Z,992.5
2017-11-04T10:35:47.804Z,992.5
2017-11-04T10:36:49.268Z,992.5
2017-11-04T10:37:50.696Z,992.5
2017-11-04T10:38:52.110Z,992.5
2017-11-04T10:39:53.523Z,992.5
2017-11-04T10:40:54.960Z,992.5
2017-11-04T10:41:56.399Z,992.5
2017-11-04T10:42:57.805Z,992.5
2017-11-04T10:43:59.258Z,992.5
2017-11-04T10:45:00.763Z,992.5
2017-11-04T10:46:02.256Z,992.4
2017-11-04T10:47:03.670Z,992.4
2017-11-04T10:48:05.098Z,992.4
2017-11-04T10:49:06.528Z,992.4
2017-11-04T10:50:07.946Z,992.4
2017-11-04T10:51:09.388Z,992.5
2017-11-04T10:52:10.866Z,992.5
2017-11-04T10:53:12.307Z,992.4
2017-11-04T10:54:13.780Z,992.4
2017-11-04T10:55:15.349Z,992.4
2017-11-04T10:56:16.856Z,992.4
2017-11-04T10:57:18.407Z,992.4
2017-11-04T10:58:19.941Z,992.4
2017-11-04T10:59:21.441Z,992.3
2017-11-04T11:00:22.877Z,992.3
2017-11-04T11:01:24.312Z,992.3
2017-11-04T11:02:25.738Z,992.2
2017-11-04T11:03:27.277Z,992.2
2017-11-04T11:04:28.814Z,992.2
2017-11-04T11:05:30.225Z,992.1
2017-11-04T11:06:31.772Z,992.1
2017-11-04T11:07:33.242Z,992.1
2017-11-04T11:08:34.656Z,992.3
2017-11-04T11:09:36.064Z,992.3
2017-11-04T11:10:37.553Z,992.3
2017-11-04T11:11:38.991Z,992.3
2017-11-04T11:12:40.400Z,992.2
2017-11-04T11:13:41.895Z,992.2
2017-11-04T11:14:43.498Z,992.1
2017-11-04T11:15:44.928Z,992.2
2017-11-04T11:16:46.347Z,992.1
2017-11-04T11:17:47.864Z,992.2
2017-11-04T11:18:49.319Z,992.0
2017-11-04T11:19:50.887Z,992.0
2017-11-04T11:20:52.355Z,991.9
2017-11-04T11:21:53.837Z,991.9
2017-11-04T11:22:55.325Z,992.0
2017-11-04T11:23:56.773Z,992.1
2017-11-04T11:24:58.240Z,992.0
2017-11-04T11:25:59.637Z,992.0
2017-11-04T11:27:01.061Z,991.9
2017-11-04T11:28:02.477Z,991.9
2017-11-04T11:29:03.945Z,991.9
2017-11-04T11:30:05.439Z,991.9
2017-11-04T11:31:06.911Z,992.0
2017-11-04T11:32:08.387Z,991.9
2017-11-04T11:33:09.862Z,991.8
2017-11-04T11:34:11.380Z,991.9
2017-11-04T11:35:12.904Z,991.9
2017-11-04T11:36:15.014Z,992.0
2017-11-04T11:37:16.542Z,992.0
2017-11-04T11:38:18.097Z,992.0
2017-11-04T11:39:19.753Z,991.9
2017-11-04T11:40:21.231Z,991.8
2017-11-04T11:41:22.779Z,991.9
2017-11-04T11:42:24.704Z,991.8
2017-11-04T11:43:26.118Z,991.8
2017-11-04T11:44:27.584Z,991.6
2017-11-04T11:45:29.128Z,991.7
2017-11-04T11:46:30.715Z,991.6
2017-11-04T11:47:32.153Z,991.7
2017-11-04T11:48:33.645Z,991.7
2017-11-04T11:49:35.185Z,991.6
2017-11-04T11:50:36.707Z,991.5
2017-11-04T11:51:38.205Z,991.6
2017-11-04T11:52:39.641Z,991.5
2017-11-04T11:53:41.148Z,991.5
2017-11-04T11:54:43.777Z,991.6
2017-11-04T11:55:45.396Z,991.4
2017-11-04T11:56:53.662Z,991.5
2017-11-04T11:57:55.183Z,991.4
2017-11-04T11:58:56.667Z,991.4
2017-11-04T11:59:58.175Z,991.4
2017-11-04T12:01:00.122Z,991.4
2017-11-04T12:02:01.551Z,991.3
2017-11-04T12:03:03.253Z,991.3
2017-11-04T12:04:05.057Z,991.4
2017-11-04T12:05:06.563Z,991.3
2017-11-04T12:06:07.949Z,991.3
2017-11-04T12:07:09.493Z,991.2
2017-11-04T12:08:10.930Z,991.2
2017-11-04T12:09:12.628Z,991.1
2017-11-04T12:10:14.155Z,991.1
2017-11-04T12:11:16.414Z,991.1
2017-11-04T12:12:17.816Z,991.1
2017-11-04T12:13:19.227Z,991.0
2017-11-04T12:14:20.762Z,991.0
2017-11-04T12:15:22.175Z,990.9
2017-11-04T12:16:23.583Z,990.9
2017-11-04T12:17:24.999Z,990.9
2017-11-04T12:18:26.541Z,990.9
2017-11-04T12:19:28.001Z,990.9
2017-11-04T12:20:29.530Z,990.9
2017-11-04T12:21:30.989Z,990.9
2017-11-04T12:22:32.482Z,990.9
2017-11-04T12:23:33.987Z,990.8
2017-11-04T12:24:35.582Z,990.9
2017-11-04T12:25:38.100Z,990.8
2017-11-04T12:26:39.937Z,990.8
2017-11-04T12:27:41.412Z,990.9
2017-11-04T12:28:42.872Z,990.8
2017-11-04T12:29:44.287Z,990.9
2017-11-04T12:30:45.724Z,990.8
2017-11-04T12:31:47.172Z,990.8
2017-11-04T12:32:48.953Z,990.8
2017-11-04T12:33:50.442Z,990.9
2017-11-04T12:34:51.894Z,990.9
2017-11-04T12:35:53.445Z,990.9
2017-11-04T12:36:54.893Z,990.9
2017-11-04T12:37:56.439Z,990.9
2017-11-04T12:38:57.928Z,990.9
2017-11-04T12:39:59.413Z,990.8
2017-11-04T12:41:00.930Z,990.8
2017-11-04T12:42:02.492Z,990.8
2017-11-04T12:43:03.928Z,990.7
2017-11-04T12:44:05.386Z,990.8
2017-11-04T12:45:06.850Z,990.8
2017-11-04T12:46:08.319Z,990.7
2017-11-04T12:47:09.798Z,990.7
2017-11-04T12:48:11.264Z,990.7
2017-11-04T12:49:12.666Z,990.7
2017-11-04T12:50:14.093Z,990.8
2017-11-04T12:51:15.593Z,990.7
2017-11-04T12:52:17.090Z,990.7
2017-11-04T12:53:18.523Z,990.7
2017-11-04T12:54:20.060Z,990.7
2017-11-04T12:55:21.593Z,990.8
2017-11-04T12:56:23.096Z,990.8
2017-11-04T12:57:24.638Z,990.8
2017-11-04T12:58:26.192Z,990.7
2017-11-04T12:59:27.756Z,990.7
2017-11-04T13:00:29.255Z,990.7
2017-11-04T13:01:30.842Z,990.8
2017-11-04T13:02:32.397Z,990.7
2017-11-04T13:03:33.857Z,990.8
2017-11-04T13:04:36.441Z,990.8
2017-11-04T13:05:37.972Z,990.8
2017-11-04T13:06:39.563Z,990.8
2017-11-04T13:07:40.978Z,990.8
2017-11-04T13:08:42.407Z,990.8
2017-11-04T13:09:43.892Z,990.8
2017-11-04T13:10:45.494Z,990.8
2017-11-04T13:11:47.032Z,990.8